Time;durP1;ratioP1;P1;durP2;ratioP2;P2;SDS_P1;SDS_P2;PMS_P1;PMS_P2;Temp;Humidity;BMP_temperature;BMP_pressure;BME280_temperature;BME280_humidity;BME280_pressure;Samples;Min_cycle;Max_cycle;Signal;HPM_P1;HPM_P2
2022/12/19 02:17:08;;;;;;;8.25;3.95;;;;;;;-5.22;100.00;102945.02;1818153;77;28650;-87
2022/12/19 02:20:05;;;;;;;6.75;3.60;;;;;;;-5.20;100.00;102943.06;1749793;80;21499;-87
2022/12/19 02:23:18;;;;;;;8.98;3.60;;;;;;;-5.17;100.00;102937.14;1775905;78;20987;-87
2022/12/19 02:26:25;;;;;;;7.62;3.30;;;;;;;-5.19;100.00;102944.78;1788258;77;21044;-87
2022/12/19 02:29:39;;;;;;;5.00;3.05;;;;;;;-5.20;100.00;102951.06;1800217;78;20964;-86
2022/12/19 02:32:35;;;;;;;8.13;4.40;;;;;;;-5.21;100.00;102948.05;1798167;79;21615;-87
2022/12/19 02:35:42;;;;;;;7.75;4.10;;;;;;;-5.20;100.00;102950.22;1800197;78;21016;-87
2022/12/19 02:39:00;;;;;;;6.55;3.52;;;;;;;-5.19;100.00;102960.78;1762946;78;21040;-87
2022/12/19 02:41:55;;;;;;;11.53;4.58;;;;;;;-5.16;100.00;102973.52;1821482;78;20946;-87
2022/12/19 02:44:47;;;;;;;5.78;3.10;;;;;;;-5.16;100.00;102982.84;1797204;78;21054;-87
2022/12/19 02:47:33;;;;;;;12.13;4.80;;;;;;;-5.16;100.00;102973.52;1800468;78;22335;-87
2022/12/19 02:50:17;;;;;;;7.72;3.65;;;;;;;-5.17;100.00;102975.80;1773837;78;21067;-87
2022/12/19 02:53:02;;;;;;;8.93;3.95;;;;;;;-5.18;100.00;102984.28;1782765;78;21006;-88
2022/12/19 02:56:16;;;;;;;7.97;3.27;;;;;;;-5.19;100.00;102994.59;1787149;79;20970;-87
2022/12/19 02:59:28;;;;;;;7.97;4.20;;;;;;;-5.17;100.00;102991.30;1771929;79;21022;-87
2022/12/19 03:02:44;;;;;;;7.00;3.17;;;;;;;-5.22;100.00;102987.67;1761537;81;20999;-86
2022/12/19 03:06:06;;;;;;;9.43;3.85;;;;;;;-5.25;100.00;102994.54;1771797;77;21378;-86
2022/12/19 03:09:07;;;;;;;10.85;4.03;;;;;;;-5.29;100.00;102996.21;1747042;81;21503;-86
2022/12/19 03:11:58;;;;;;;9.28;4.22;;;;;;;-5.35;100.00;103008.67;1741045;80;20906;-87
2022/12/19 03:14:44;;;;;;;9.13;3.65;;;;;;;-5.45;100.00;103010.66;1743854;78;21502;-86
2022/12/19 03:17:34;;;;;;;6.78;3.50;;;;;;;-5.55;100.00;103016.78;1765366;79;20986;-86
2022/12/19 03:20:49;;;;;;;7.95;4.03;;;;;;;-5.64;100.00;103024.48;1766555;79;21006;-86
2022/12/19 03:23:34;;;;;;;9.10;4.60;;;;;;;-5.72;100.00;103028.64;1766335;79;21508;-87
2022/12/19 03:26:21;;;;;;;6.87;3.55;;;;;;;-5.84;100.00;103026.36;1734585;82;21002;-87
2022/12/19 03:29:35;;;;;;;7.12;3.15;;;;;;;-5.94;100.00;103032.00;1749127;81;20977;-87
2022/12/19 03:32:21;;;;;;;10.20;3.70;;;;;;;-6.01;100.00;103037.38;1721561;80;21025;-86
2022/12/19 03:35:19;;;;;;;7.97;3.35;;;;;;;-6.09;100.00;103049.41;1759687;80;21011;-87
2022/12/19 03:38:04;;;;;;;6.83;4.28;;;;;;;-6.13;100.00;103058.59;1753132;81;21065;-87
2022/12/19 03:40:49;;;;;;;10.58;4.20;;;;;;;-6.15;100.00;103056.99;1760316;81;21034;-87
2022/12/19 03:43:33;;;;;;;8.20;3.58;;;;;;;-6.17;100.00;103056.23;1733220;79;21021;-87
2022/12/19 03:46:22;;;;;;;12.82;4.42;;;;;;;-6.21;100.00;103058.24;1741270;79;21095;-87
2022/12/19 03:49:06;;;;;;;7.45;3.85;;;;;;;-6.23;100.00;103066.84;1751218;80;21008;-87
2022/12/19 03:52:10;;;;;;;5.83;3.87;;;;;;;-6.27;100.00;103078.16;1732464;81;21462;-88
2022/12/19 03:55:09;;;;;;;7.72;3.80;;;;;;;-6.30;100.00;103084.17;1759613;80;20990;-88
2022/12/19 03:58:00;;;;;;;8.25;3.60;;;;;;;-6.31;100.00;103086.45;1752375;80;20997;-87
2022/12/19 04:00:46;;;;;;;6.00;3.30;;;;;;;-6.31;100.00;103087.78;1726491;81;21007;-87
2022/12/19 04:03:30;;;;;;;6.12;3.55;;;;;;;-6.32;100.00;103091.41;1768624;80;21024;-87
2022/12/19 04:06:15;;;;;;;6.35;3.42;;;;;;;-6.33;100.00;103099.00;1782864;79;21130;-87
2022/12/19 04:08:59;;;;;;;9.25;4.22;;;;;;;-6.33;100.00;103102.53;1769988;79;20981;-86
2022/12/19 04:11:49;;;;;;;5.40;3.52;;;;;;;-6.32;100.00;103108.70;1735408;80;21784;-88
2022/12/19 04:14:35;;;;;;;7.40;3.80;;;;;;;-6.34;100.00;103114.12;1753849;79;20981;-87
2022/12/19 04:17:46;;;;;;;8.40;3.60;;;;;;;-6.32;100.00;103119.34;1761832;80;20994;-87
2022/12/19 04:20:31;;;;;;;7.45;3.45;;;;;;;-6.30;100.00;103129.42;1755743;80;21520;-86
2022/12/19 04:23:22;;;;;;;6.28;3.08;;;;;;;-6.28;100.00;103134.13;1736082;81;20986;-87
2022/12/19 04:26:07;;;;;;;8.23;3.25;;;;;;;-6.28;100.00;103130.14;1753362;80;21010;-87
2022/12/19 04:28:57;;;;;;;5.95;2.92;;;;;;;-6.28;100.00;103143.00;1764770;80;21003;-87
2022/12/19 04:31:41;;;;;;;6.28;3.00;;;;;;;-6.28;100.00;103143.00;1747990;80;21042;-87
2022/12/19 04:34:26;;;;;;;5.83;2.98;;;;;;;-6.27;100.00;103137.19;1779471;79;21465;-86
2022/12/19 04:37:11;;;;;;;9.90;3.55;;;;;;;-6.27;100.00;103143.36;1739456;82;21008;-87
2022/12/19 04:39:56;;;;;;;7.80;3.75;;;;;;;-6.26;100.00;103136.22;1731423;80;21045;-87
2022/12/19 04:42:40;;;;;;;9.95;4.25;;;;;;;-6.25;100.00;103141.94;1749101;81;21054;-87
2022/12/19 04:45:24;;;;;;;7.62;3.47;;;;;;;-6.24;100.00;103140.97;1753538;80;21080;-86
2022/12/19 04:48:09;;;;;;;7.55;3.42;;;;;;;-6.22;100.00;103145.71;1773233;79;20985;-87
2022/12/19 04:50:54;;;;;;;5.40;2.52;;;;;;;-6.22;100.00;103145.71;1759795;79;21038;-88
2022/12/19 04:53:39;;;;;;;10.72;4.00;;;;;;;-6.20;100.00;103148.28;1755369;79;21434;-87
2022/12/19 04:56:24;;;;;;;9.33;4.00;;;;;;;-6.18;100.00;103153.00;1761286;79;20999;-87
2022/12/19 04:59:09;;;;;;;6.87;2.72;;;;;;;-6.17;100.00;103155.57;1753948;79;21038;-88
2022/12/19 05:01:53;;;;;;;5.65;2.40;;;;;;;-6.13;100.00;103154.42;1750308;81;21006;-85
2022/12/19 05:04:38;;;;;;;4.37;2.42;;;;;;;-6.13;100.00;103146.44;1759705;79;20994;-86
2022/12/19 05:07:22;;;;;;;10.03;4.08;;;;;;;-6.14;100.00;103156.69;1743780;80;20981;-87
2022/12/19 05:10:08;;;;;;;12.30;4.35;;;;;;;-6.16;100.00;103163.07;1740307;80;21044;-88
2022/12/19 05:12:53;;;;;;;17.50;4.97;;;;;;;-6.21;100.00;103165.19;1754702;80;21081;-87
2022/12/19 05:15:38;;;;;;;11.22;3.90;;;;;;;-6.23;100.00;103171.09;1759957;79;20992;-87
2022/12/19 05:18:23;;;;;;;9.15;4.37;;;;;;;-6.26;100.00;103168.16;1740572;80;20978;-87
2022/12/19 05:21:08;;;;;;;8.83;4.30;;;;;;;-6.28;100.00;103164.28;1726090;80;21002;-87
2022/12/19 05:23:53;;;;;;;6.78;3.50;;;;;;;-6.28;100.00;103172.72;1736809;80;21026;-88
2022/12/19 05:26:37;;;;;;;7.97;3.25;;;;;;;-6.26;100.00;103181.47;1670707;82;21475;-86
2022/12/19 05:29:23;;;;;;;5.33;3.10;;;;;;;-6.21;100.00;103182.49;1726235;81;21012;-86
2022/12/19 05:32:08;;;;;;;6.17;3.72;;;;;;;-6.18;100.00;103183.16;1753703;79;21014;-87
2022/12/19 05:34:53;;;;;;;4.37;3.02;;;;;;;-6.13;100.00;103186.81;1739883;82;21007;-87
2022/12/19 05:37:37;;;;;;;5.15;3.22;;;;;;;-6.13;100.00;103180.16;1720275;81;21529;-87
2022/12/19 05:40:22;;;;;;;6.42;2.90;;;;;;;-6.13;100.00;103186.36;1732220;81;21516;-86
2022/12/19 05:43:06;;;;;;;7.45;3.30;;;;;;;-6.11;100.00;103198.22;1742887;80;20957;-86
2022/12/19 05:45:51;;;;;;;3.35;2.60;;;;;;;-6.11;100.00;103198.22;1747631;80;21044;-87
2022/12/19 05:48:35;;;;;;;8.48;3.50;;;;;;;-6.12;100.00;103198.70;1755308;80;21006;-86
2022/12/19 05:51:20;;;;;;;7.15;3.45;;;;;;;-6.13;100.00;103205.00;1754557;79;21475;-86
2022/12/19 05:54:05;;;;;;;8.95;3.83;;;;;;;-6.11;100.00;103217.73;1757706;79;20993;-87
2022/12/19 05:56:52;;;;;;;7.75;4.00;;;;;;;-6.10;100.00;103226.08;1727592;80;21038;-88
2022/12/19 08:07:13;;;;;;;8.27;3.13;;;;;;;-5.58;100.00;103322.08;1809154;77;23212;-86
2022/12/19 08:09:57;;;;;;;14.53;4.97;;;;;;;-5.52;100.00;103337.64;1739276;82;21077;-86
2022/12/19 08:12:42;;;;;;;10.90;4.53;;;;;;;-5.40;100.00;103340.33;1730400;81;21451;-84
2022/12/19 08:15:26;;;;;;;9.15;3.90;;;;;;;-5.27;100.00;103327.02;1727673;81;21021;-85
2022/12/19 08:18:11;;;;;;;13.62;3.90;;;;;;;-5.10;100.00;103335.19;1704835;81;21004;-85
2022/12/19 08:20:56;;;;;;;9.45;4.33;;;;;;;-4.95;100.00;103331.94;1711180;81;21953;-90
2022/12/19 08:23:42;;;;;;;11.68;4.55;;;;;;;-4.83;100.00;103325.75;1707627;82;21891;-89
2022/12/19 08:26:27;;;;;;;8.78;3.87;;;;;;;-4.72;100.00;103318.80;1713508;81;21024;-89
2022/12/19 08:29:12;;;;;;;7.10;3.17;;;;;;;-4.61;100.00;103333.59;1734301;80;21009;-89
2022/12/19 08:31:56;;;;;;;5.30;3.15;;;;;;;-4.51;100.00;103327.11;1713358;82;21042;-89
2022/12/19 08:34:41;;;;;;;5.40;2.87;;;;;;;-4.41;100.00;103330.34;1721207;83;21507;-89
2022/12/19 08:37:26;;;;;;;10.55;3.80;;;;;;;-4.32;100.00;103331.02;1720263;81;21140;-89
2022/12/19 08:40:11;;;;;;;11.88;4.80;;;;;;;-4.23;100.00;103341.98;1707164;81;21024;-89
2022/12/19 08:42:56;;;;;;;17.10;7.17;;;;;;;-4.13;100.00;103348.36;1712854;83;20989;-90
2022/12/19 08:45:40;;;;;;;6.83;3.10;;;;;;;-4.03;100.00;103333.39;1717643;83;21060;-89
2022/12/19 08:48:25;;;;;;;12.93;3.67;;;;;;;-3.96;100.00;103327.94;1709933;81;21041;-88
2022/12/19 08:51:10;;;;;;;8.10;3.72;;;;;;;-3.89;100.00;103337.22;1710848;83;21016;-89
2022/12/19 08:53:54;;;;;;;9.08;3.10;;;;;;;-3.80;100.00;103341.53;1715377;83;21036;-88
2022/12/19 08:56:39;;;;;;;9.63;3.85;;;;;;;-3.74;100.00;103333.88;1709906;83;21010;-90
2022/12/19 08:59:23;;;;;;;6.10;2.30;;;;;;;-3.65;100.00;103336.86;1715402;81;21009;-90
2022/12/19 09:02:08;;;;;;;9.68;3.58;;;;;;;-3.58;100.00;103336.28;1723261;81;21008;-90
2022/12/19 09:04:53;;;;;;;5.00;2.75;;;;;;;-3.52;100.00;103333.62;1742208;81;21617;-91
2022/12/19 09:07:39;;;;;;;6.22;2.90;;;;;;;-3.45;100.00;103333.53;1728837;81;21020;-88
2022/12/19 09:10:24;;;;;;;3.75;1.85;;;;;;;-3.36;100.00;103327.95;1698772;81;21743;-89
2022/12/19 09:13:09;;;;;;;7.45;2.33;;;;;;;-3.30;100.00;103331.50;1707534;81;21058;-90
2022/12/19 09:16:14;;;;;;;8.00;2.80;;;;;;;-3.22;100.00;103328.23;1718896;81;21413;-89
2022/12/19 09:18:58;;;;;;;5.22;2.40;;;;;;;-3.15;100.00;103316.95;1698693;83;21129;-90
2022/12/19 09:21:43;;;;;;;4.47;2.52;;;;;;;-3.07;100.00;103321.20;1715601;83;20994;-89
2022/12/19 09:24:28;;;;;;;5.80;3.47;;;;;;;-3.03;100.00;103319.16;1708175;83;21014;-89
2022/12/19 09:27:12;;;;;;;6.05;2.55;;;;;;;-2.95;100.00;103309.20;1699243;83;20998;-90
2022/12/19 09:29:57;;;;;;;5.55;2.67;;;;;;;-2.93;100.00;103308.10;1722049;82;21077;-90
2022/12/19 09:32:41;;;;;;;4.60;2.55;;;;;;;-2.91;100.00;103309.33;1717212;83;21664;-91
2022/12/19 09:35:26;;;;;;;3.30;2.05;;;;;;;-2.88;100.00;103319.78;1725018;79;21026;-90
2022/12/19 09:38:10;;;;;;;3.35;1.80;;;;;;;-2.82;100.00;103327.31;1704188;83;21037;-90
2022/12/19 09:41:21;;;;;;;7.22;2.55;;;;;;;-2.81;100.00;103322.35;1707771;83;21010;-88
2022/12/19 09:44:48;;;;;;;5.33;2.27;;;;;;;-2.79;100.00;103324.89;1697579;83;21077;-89
2022/12/19 09:47:35;;;;;;;4.47;2.37;;;;;;;-2.74;100.00;103326.25;1725431;82;21508;-90
2022/12/19 09:50:53;;;;;;;5.67;2.35;;;;;;;-2.67;100.00;103342.19;1706612;83;21045;-88
2022/12/19 09:53:43;;;;;;;2.92;1.95;;;;;;;-2.68;100.00;103336.45;1717581;82;21025;-89
2022/12/19 09:56:30;;;;;;;3.80;1.87;;;;;;;-2.70;100.00;103331.70;1721931;82;21442;-88
2022/12/19 09:59:29;;;;;;;7.22;3.10;;;;;;;-2.70;100.00;103321.49;1722331;81;20986;-89
2022/12/19 10:03:01;;;;;;;4.95;2.30;;;;;;;-2.65;100.00;103324.66;1718376;81;21084;-88
2022/12/19 10:05:55;;;;;;;11.45;4.25;;;;;;;-2.61;100.00;103320.27;1710992;83;21133;-88
2022/12/19 10:08:40;;;;;;;4.10;2.50;;;;;;;-2.57;100.00;103322.70;1732720;81;21002;-88
2022/12/19 10:11:52;;;;;;;7.97;3.50;;;;;;;-2.52;100.00;103321.84;1706041;83;21041;-88
2022/12/19 10:15:10;;;;;;;15.17;4.20;;;;;;;-2.50;100.00;103319.90;1711302;83;20994;-87
2022/12/19 10:18:06;;;;;;;9.10;3.22;;;;;;;-2.48;100.00;103320.14;1705002;81;21048;-87
2022/12/19 10:21:28;;;;;;;5.75;2.33;;;;;;;-2.51;100.00;103319.55;1704999;83;21093;-87
2022/12/19 10:24:44;;;;;;;10.90;3.95;;;;;;;-2.45;100.00;103316.36;1701337;83;20969;-89
2022/12/19 10:27:55;;;;;;;5.90;2.90;;;;;;;-2.40;100.00;103313.70;1692586;79;21066;-79
2022/12/19 10:30:44;;;;;;;4.28;2.17;;;;;;;-2.35;100.00;103313.80;1673728;84;21551;-80
2022/12/19 10:33:53;;;;;;;8.18;3.10;;;;;;;-2.27;100.00;103310.03;1673300;84;21030;-80
2022/12/19 10:36:46;;;;;;;8.60;3.00;;;;;;;-2.19;100.00;103316.45;1694586;84;21079;-79
2022/12/19 10:40:04;;;;;;;5.72;2.75;;;;;;;-2.14;100.00;103316.08;1651666;84;21945;-79
2022/12/19 10:43:13;;;;;;;7.92;2.10;;;;;;;-2.09;100.00;103303.66;1666156;84;21045;-80
2022/12/19 10:46:01;;;;;;;3.17;1.60;;;;;;;-2.06;100.00;103299.38;1681989;83;21119;-80
2022/12/19 10:48:49;;;;;;;5.30;2.02;;;;;;;-1.99;100.00;103304.59;1685896;84;21042;-80
2022/12/19 10:51:33;;;;;;;9.08;2.30;;;;;;;-1.95;100.00;103310.08;1646173;84;21056;-78
2022/12/19 10:54:18;;;;;;;4.55;2.15;;;;;;;-1.92;100.00;103301.77;1681185;83;21525;-78
2022/12/19 10:57:28;;;;;;;4.78;2.37;;;;;;;-1.90;100.00;103294.46;1680682;84;21053;-80
2022/12/19 11:00:17;;;;;;;7.20;3.00;;;;;;;-1.85;100.00;103305.65;1687262;83;21049;-77
2022/12/19 14:06:26;;;;;;;9.80;4.57;;;;;;;-5.13;100.00;103317.23;1839793;77;22492;-83
2022/12/19 14:09:35;;;;;;;13.85;4.45;;;;;;;-5.21;100.00;103321.27;1764698;80;21045;-83
2022/12/19 14:15:38;;;;;;;13.48;5.00;;;;;;;-5.33;100.00;103322.11;1703951;83;21069;-82
2022/12/19 14:18:26;;;;;;;13.68;5.22;;;;;;;-5.40;100.00;103319.48;1732958;82;20998;-82
2022/12/19 14:21:16;;;;;;;7.22;3.40;;;;;;;-5.43;100.00;103319.70;1705666;82;21029;-83
2022/12/19 14:24:18;;;;;;;10.80;4.62;;;;;;;-5.48;100.00;103317.83;1705010;82;21025;-83
2022/12/19 14:27:12;;;;;;;3.77;2.47;;;;;;;-5.52;100.00;103314.98;1714827;82;21522;-82
2022/12/19 14:29:57;;;;;;;12.85;4.50;;;;;;;-5.56;100.00;103319.68;1733969;82;20977;-83
2022/12/19 14:32:41;;;;;;;7.33;3.98;;;;;;;-5.58;100.00;103320.26;1727565;82;21014;-82
2022/12/19 14:35:29;;;;;;;11.00;4.30;;;;;;;-5.62;100.00;103320.08;1726641;82;21002;-83
2022/12/19 14:38:19;;;;;;;8.73;3.77;;;;;;;-5.65;100.00;103325.13;1721241;82;21532;-83
2022/12/19 14:41:04;;;;;;;8.95;3.83;;;;;;;-5.68;100.00;103312.51;1702674;84;20993;-83
2022/12/19 14:43:53;;;;;;;21.45;8.25;;;;;;;-5.71;100.00;103312.69;1726764;81;21215;-82
2022/12/19 14:46:37;;;;;;;27.20;8.70;;;;;;;-5.75;100.00;103313.39;1708736;82;21049;-83
2022/12/19 14:49:26;;;;;;;15.03;6.58;;;;;;;-5.80;100.00;103311.51;1716158;82;21614;-83
2022/12/19 14:52:36;;;;;;;15.53;6.75;;;;;;;-5.83;100.00;103321.05;1718474;82;21079;-82
2022/12/19 14:55:33;;;;;;;9.90;4.75;;;;;;;-5.88;100.00;103321.83;1689776;81;21086;-82
2022/12/19 14:58:31;;;;;;;11.20;4.47;;;;;;;-5.93;100.00;103322.13;1738396;81;21010;-82
2022/12/19 15:01:24;;;;;;;9.73;4.28;;;;;;;-5.97;100.00;103319.79;1707429;82;21457;-83
2022/12/19 15:04:17;;;;;;;10.43;4.00;;;;;;;-6.05;100.00;103322.95;1697432;84;21026;-82
2022/12/19 15:07:06;;;;;;;;;;;;;;;-6.11;100.00;103325.55;1705563;83;21057;-83
2022/12/19 15:10:04;;;;;;;7.50;3.50;;;;;;;-6.17;100.00;103333.92;1716345;83;21192;-82
2022/12/19 15:13:21;;;;;;;6.12;4.05;;;;;;;-6.24;100.00;103328.61;1715021;82;21041;-82
2022/12/19 15:16:06;;;;;;;11.48;4.55;;;;;;;-6.29;100.00;103316.92;1712358;82;21436;-83
2022/12/19 15:18:52;;;;;;;10.40;5.60;;;;;;;-6.36;100.00;103317.41;1709698;80;20989;-82
2022/12/19 15:21:36;;;;;;;12.58;5.80;;;;;;;-6.40;100.00;103326.56;1712128;83;21014;-82
2022/12/19 15:24:21;;;;;;;10.08;6.08;;;;;;;-6.45;100.00;103325.52;1715170;83;21473;-81
2022/12/19 15:27:12;;;;;;;13.72;6.08;;;;;;;-6.50;100.00;103323.15;1740608;81;20990;-82
2022/12/19 15:29:57;;;;;;;17.85;7.83;;;;;;;-6.55;100.00;103321.26;1716427;82;21069;-82
2022/12/19 15:32:42;;;;;;;22.55;8.95;;;;;;;-6.59;100.00;103329.05;1704834;82;21059;-82
2022/12/19 15:35:27;;;;;;;15.50;6.97;;;;;;;-6.64;100.00;103327.15;1712405;82;21021;-82
2022/12/19 15:38:12;;;;;;;10.15;5.67;;;;;;;-6.68;100.00;103320.30;1703375;82;21073;-82
2022/12/19 15:40:56;;;;;;;11.35;5.78;;;;;;;-6.72;100.00;103325.45;1731539;82;21068;-82
2022/12/19 15:43:41;;;;;;;10.95;4.20;;;;;;;-6.76;100.00;103320.78;1731629;82;21410;-82
2022/12/19 15:46:29;;;;;;;7.20;4.28;;;;;;;-6.81;100.00;103318.88;1728466;82;21014;-82
2022/12/19 15:49:17;;;;;;;13.25;4.58;;;;;;;-6.85;100.00;103312.03;1704068;82;21084;-82
2022/12/19 15:52:02;;;;;;;11.93;4.45;;;;;;;-6.90;100.00;103312.80;1704121;82;21048;-82
2022/12/19 15:54:46;;;;;;;6.03;3.00;;;;;;;-6.95;100.00;103310.45;1677235;84;21005;-83
2022/12/19 15:57:34;;;;;;;9.23;3.72;;;;;;;-7.00;100.00;103314.31;1701597;84;21474;-82
2022/12/19 16:00:24;;;;;;;8.18;3.50;;;;;;;-7.04;100.00;103316.80;1724546;81;21018;-82
2022/12/19 16:03:11;;;;;;;7.75;3.50;;;;;;;-7.10;100.00;103322.00;1724381;81;21021;-82
2022/12/19 16:05:56;;;;;;;10.18;5.53;;;;;;;-7.12;100.00;103321.26;1714156;82;21065;-82
2022/12/19 16:08:40;;;;;;;11.77;5.13;;;;;;;-7.13;100.00;103323.52;1735135;82;21464;-82
2022/12/19 16:11:25;;;;;;;12.43;5.70;;;;;;;-7.15;100.00;103333.38;1721005;82;21059;-82
2022/12/19 16:14:09;;;;;;;10.95;5.30;;;;;;;-7.15;100.00;103328.91;1723649;83;21052;-80
2022/12/19 16:16:54;;;;;;;8.15;4.75;;;;;;;-7.17;100.00;103325.52;1742881;81;21006;-81
2022/12/19 16:19:40;;;;;;;18.67;5.10;;;;;;;-7.16;100.00;103322.38;1743246;81;21605;-81
2022/12/19 16:22:27;;;;;;;9.75;5.17;;;;;;;-7.18;100.00;103323.79;1723180;82;21947;-81
2022/12/19 16:25:12;;;;;;;8.53;4.12;;;;;;;-7.21;100.00;103316.49;1721969;82;21005;-80
2022/12/19 16:27:57;;;;;;;10.00;4.87;;;;;;;-7.25;100.00;103314.95;1738034;82;21049;-80
2022/12/19 16:30:43;;;;;;;13.05;5.62;;;;;;;-7.30;100.00;103309.06;1736638;82;21017;-80
2022/12/19 16:33:29;;;;;;;14.35;6.17;;;;;;;-7.36;100.00;103308.48;1709387;82;21135;-80
2022/12/19 16:36:14;;;;;;;13.50;3.83;;;;;;;-7.39;100.00;103299.38;1729350;82;21577;-80
2022/12/19 16:38:58;;;;;;;9.05;4.15;;;;;;;-7.46;100.00;103295.86;1737039;82;21469;-80
2022/12/19 16:41:43;;;;;;;9.85;4.65;;;;;;;-7.46;100.00;103295.86;1737940;82;21032;-80
2022/12/19 16:44:29;;;;;;;9.20;4.10;;;;;;;-7.47;100.00;103296.78;1737940;81;21198;-81
2022/12/19 16:47:16;;;;;;;8.83;4.05;;;;;;;-7.52;100.00;103302.37;1713424;82;21076;-80
2022/12/19 16:50:03;;;;;;;6.78;3.40;;;;;;;-7.54;100.00;103307.39;1731042;82;21062;-81
2022/12/19 16:52:48;;;;;;;9.75;4.37;;;;;;;-7.59;100.00;103311.19;1726598;82;21006;-81
2022/12/19 16:55:32;;;;;;;7.85;3.67;;;;;;;-7.59;100.00;103311.64;1737112;82;21017;-82
2022/12/19 16:58:23;;;;;;;11.35;4.45;;;;;;;-7.60;100.00;103306.81;1737183;82;21049;-81
2022/12/19 17:01:09;;;;;;;9.38;4.20;;;;;;;-7.60;100.00;103306.81;1737821;82;21571;-83
2022/12/19 17:03:53;;;;;;;11.30;5.20;;;;;;;-7.62;100.00;103311.83;1727813;82;21053;-81
2022/12/19 17:06:38;;;;;;;6.58;4.05;;;;;;;-7.57;100.00;103304.00;1712431;82;21473;-81
2022/12/19 17:09:24;;;;;;;7.97;4.47;;;;;;;-7.55;100.00;103305.69;1708434;82;21436;-83
2022/12/19 17:12:09;;;;;;;9.78;4.75;;;;;;;-7.58;100.00;103297.44;1732441;81;21019;-82
2022/12/19 17:14:54;;;;;;;5.87;4.15;;;;;;;-7.66;100.00;103296.56;1726573;82;21459;-82
2022/12/19 17:17:39;;;;;;;11.68;4.87;;;;;;;-7.69;100.00;103299.85;1726365;83;20996;-82
2022/12/19 17:20:26;;;;;;;13.50;4.80;;;;;;;-7.70;100.00;103304.31;1740205;81;21061;-82
2022/12/19 17:23:17;;;;;;;9.75;3.87;;;;;;;-7.72;100.00;103304.02;1739881;81;20982;-82
2022/12/19 17:26:02;;;;;;;7.97;4.53;;;;;;;-7.75;100.00;103310.84;1756659;81;21041;-82
2022/12/19 17:28:49;;;;;;;17.57;9.30;;;;;;;-7.75;100.00;103310.84;1710524;81;21083;-83
2022/12/19 17:31:37;;;;;;;17.00;6.37;;;;;;;-7.74;100.00;103313.39;1713690;82;21530;-82
2022/12/19 17:34:27;;;;;;;17.70;9.18;;;;;;;-7.73;100.00;103314.27;1709789;81;20997;-83
2022/12/19 17:37:14;;;;;;;20.43;9.85;;;;;;;-7.72;100.00;103306.67;1739755;81;20990;-84
2022/12/19 17:39:58;;;;;;;23.83;8.88;;;;;;;-7.71;100.00;103313.23;1703188;84;21073;-83
2022/12/19 17:42:43;;;;;;;17.75;7.47;;;;;;;-7.71;100.00;103312.39;1732653;82;21077;-83
2022/12/19 17:45:28;;;;;;;12.28;6.83;;;;;;;-7.71;100.00;103307.08;1732319;81;21001;-83
2022/12/19 17:48:30;;;;;;;8.08;4.60;;;;;;;-7.76;100.00;103302.48;1709975;82;21010;-83
2022/12/19 17:51:19;;;;;;;11.83;5.47;;;;;;;-7.80;100.00;103303.14;1702904;83;21036;-82
2022/12/19 17:54:09;;;;;;;10.18;4.53;;;;;;;-7.82;100.00;103299.72;1703330;84;20998;-83
2022/12/19 17:56:54;;;;;;;8.80;4.67;;;;;;;-7.86;100.00;103314.98;1708898;82;21092;-83
2022/12/19 17:59:39;;;;;;;13.15;4.60;;;;;;;-7.90;100.00;103305.95;1732024;82;21065;-82
2022/12/19 20:06:06;;;;;;;15.00;4.23;;;;;;;-10.12;100.00;103280.25;1846046;77;21953;-80
2022/12/19 20:08:52;;;;;;;13.55;5.05;;;;;;;-10.14;100.00;103280.31;1782672;78;20981;-81
2022/12/19 20:11:37;;;;;;;18.62;6.97;;;;;;;-10.06;100.00;103276.86;1757243;80;21061;-79
2022/12/19 20:14:22;;;;;;;21.68;7.97;;;;;;;-9.99;100.00;103279.59;1788891;80;21471;-79
2022/12/19 20:17:07;;;;;;;15.50;7.45;;;;;;;-9.93;100.00;103274.92;1775610;80;21054;-79
2022/12/19 20:19:51;;;;;;;30.85;11.22;;;;;;;-9.89;100.00;103273.82;1764916;80;21010;-79
2022/12/19 20:22:36;;;;;;;22.65;8.83;;;;;;;-9.86;100.00;103268.40;1783889;79;21049;-80
2022/12/19 20:25:21;;;;;;;17.02;7.40;;;;;;;-9.72;100.00;103264.56;1776063;79;21476;-79
2022/12/19 20:28:05;;;;;;;12.25;6.53;;;;;;;-9.74;100.00;103259.84;1776474;79;21017;-80
2022/12/19 20:30:51;;;;;;;9.68;4.22;;;;;;;-9.58;100.00;103270.48;1778047;79;21403;-79
2022/12/19 20:33:37;;;;;;;10.32;5.50;;;;;;;-9.56;100.00;103265.50;1785496;79;21607;-79
2022/12/19 20:36:22;;;;;;;13.40;5.70;;;;;;;-9.55;100.00;103265.88;1786491;80;21029;-79
2022/12/19 20:39:07;;;;;;;14.30;5.85;;;;;;;-9.50;100.00;103266.13;1766124;79;21191;-79
2022/12/19 20:41:51;;;;;;;12.13;5.33;;;;;;;-9.47;100.00;103263.30;1700643;82;21040;-80
2022/12/19 20:44:36;;;;;;;17.45;6.87;;;;;;;-9.42;100.00;103266.56;1749175;81;21915;-79
2022/12/19 20:47:23;;;;;;;9.60;5.12;;;;;;;-9.41;100.00;103259.88;1757105;81;21024;-80
2022/12/19 20:50:08;;;;;;;10.78;4.95;;;;;;;-9.38;100.00;103254.89;1749476;81;21033;-80
2022/12/19 20:52:53;;;;;;;12.23;6.25;;;;;;;-9.36;100.00;103254.34;1733828;81;21005;-80
2022/12/19 20:55:39;;;;;;;14.15;5.67;;;;;;;-9.28;100.00;103253.94;1718415;82;21022;-80
2022/12/19 20:58:26;;;;;;;13.70;5.45;;;;;;;-9.25;100.00;103241.38;1713562;80;20985;-80
2022/12/19 21:01:19;;;;;;;12.88;5.87;;;;;;;-9.20;100.00;103241.98;1707050;82;21567;-80
2022/12/19 21:04:04;;;;;;;15.05;6.03;;;;;;;-9.24;100.00;103245.76;1730463;81;21107;-79
2022/12/19 21:06:49;;;;;;;15.85;5.15;;;;;;;-9.25;100.00;103241.38;1715489;82;21045;-81
2022/12/19 21:09:34;;;;;;;13.72;6.08;;;;;;;-9.25;100.00;103241.38;1728909;81;21061;-79
2022/12/19 21:12:20;;;;;;;13.35;6.10;;;;;;;-9.27;100.00;103244.61;1705209;83;21032;-81
2022/12/19 21:15:06;;;;;;;14.98;6.75;;;;;;;-9.26;100.00;103246.78;1735804;81;21006;-81
2022/12/19 21:17:51;;;;;;;17.52;6.22;;;;;;;-9.27;100.00;103252.99;1728287;81;21850;-79
2022/12/19 21:20:36;;;;;;;12.45;5.37;;;;;;;-9.27;100.00;103255.20;1718973;81;20977;-79
2022/12/19 21:23:24;;;;;;;11.40;5.30;;;;;;;-9.24;100.00;103263.45;1722857;81;20933;-83
2022/12/19 21:26:09;;;;;;;18.27;6.35;;;;;;;-9.24;100.00;103259.00;1744180;81;21419;-81
2022/12/19 21:28:53;;;;;;;16.27;6.50;;;;;;;-9.23;100.00;103248.78;1716117;81;21042;-81
2022/12/19 21:31:38;;;;;;;14.07;5.42;;;;;;;-9.21;100.00;103246.91;1738021;80;21070;-84
2022/12/19 21:34:22;;;;;;;14.23;6.15;;;;;;;-9.21;100.00;103241.61;1727424;82;20975;-80
2022/12/19 21:37:07;;;;;;;16.20;4.95;;;;;;;-9.21;100.00;103246.91;1692312;81;21050;-84
2022/12/19 21:39:51;;;;;;;12.90;5.70;;;;;;;-9.22;100.00;103241.24;1722717;81;21002;-81
2022/12/19 21:42:36;;;;;;;15.55;6.03;;;;;;;-9.22;100.00;103243.89;1747337;81;21002;-80
2022/12/19 21:45:21;;;;;;;15.75;5.03;;;;;;;-9.23;100.00;103236.02;1722983;81;21081;-82
2022/12/19 21:48:06;;;;;;;13.38;6.22;;;;;;;-9.25;100.00;103244.03;1730558;81;21009;-82
2022/12/19 21:50:56;;;;;;;19.65;6.87;;;;;;;-9.27;100.00;103241.95;1718208;81;21579;-81
2022/12/19 21:53:41;;;;;;;14.35;6.45;;;;;;;-9.23;100.00;103234.21;1735965;80;21558;-82
2022/12/19 21:56:35;;;;;;;11.22;5.62;;;;;;;-9.22;100.00;103234.62;1730576;81;21005;-84
2022/12/19 21:59:20;;;;;;;15.03;6.22;;;;;;;-9.22;100.00;103237.27;1738165;82;21506;-82
2022/12/19 22:02:04;;;;;;;11.53;5.30;;;;;;;-9.24;100.00;103235.16;1721049;82;21049;-81
2022/12/19 22:04:49;;;;;;;13.20;5.58;;;;;;;-9.22;100.00;103218.73;1723392;81;21010;-82
2022/12/19 22:07:34;;;;;;;10.03;3.83;;;;;;;-9.22;100.00;103221.81;1729395;81;21472;-82
2022/12/19 22:10:19;;;;;;;13.22;5.92;;;;;;;-9.23;100.00;103221.44;1720551;82;20994;-81
2022/12/19 22:13:03;;;;;;;12.00;5.15;;;;;;;-9.24;100.00;103217.09;1734638;82;21068;-81
2022/12/19 22:15:48;;;;;;;14.05;5.45;;;;;;;-9.27;100.00;103219.89;1753000;81;21002;-81
2022/12/19 22:18:36;;;;;;;15.70;6.42;;;;;;;-9.27;100.00;103219.45;1740959;82;21032;-81
2022/12/19 22:21:20;;;;;;;21.27;5.72;;;;;;;-9.27;100.00;103214.59;1737962;81;21060;-82
2022/12/19 22:24:06;;;;;;;13.43;5.08;;;;;;;-9.25;100.00;103210.92;1729994;81;20987;-81
2022/12/19 22:26:50;;;;;;;11.53;5.42;;;;;;;-9.26;100.00;103209.70;1718968;81;21088;-82
2022/12/19 22:29:35;;;;;;;17.60;6.70;;;;;;;-9.24;100.00;103214.45;1732610;81;21516;-81